createdAt,value
2022-09-15T00:00:26.994Z,99891.91
2022-09-15T00:02:53.548Z,99881.50
2022-09-15T00:05:20.905Z,99890.09
2022-09-15T00:07:47.546Z,99896.19
2022-09-15T00:10:14.204Z,99883.19
2022-09-15T00:12:40.687Z,99883.13
2022-09-15T00:15:07.961Z,99873.47
2022-09-15T00:17:34.640Z,99886.75
2022-09-15T00:20:01.274Z,99883.25
2022-09-15T00:22:28.223Z,99884.81
2022-09-15T00:24:54.738Z,99877.13
2022-09-15T00:27:21.201Z,99873.66
2022-09-15T00:29:47.634Z,99882.22
2022-09-15T00:32:14.122Z,99882.94
2022-09-15T00:34:40.555Z,99880.44
2022-09-15T00:37:07.283Z,99880.47
2022-09-15T00:39:34.049Z,99875.25
2022-09-15T00:42:00.472Z,99892.69
2022-09-15T00:44:35.869Z,99893.41
2022-09-15T00:47:18.885Z,99879.56
2022-09-15T00:49:49.235Z,99877.81
2022-09-15T00:52:32.523Z,99883.84
2022-09-15T00:55:17.177Z,99873.47
2022-09-15T00:58:06.553Z,99880.47
2022-09-15T01:00:33.947Z,99878.31
2022-09-15T01:03:01.725Z,99874.66
2022-09-15T01:05:48.397Z,99872.19
2022-09-15T01:08:20.685Z,99870.59
2022-09-15T01:10:47.172Z,99879.34
2022-09-15T01:13:14.995Z,99882.94
2022-09-15T01:16:19.466Z,99883.91
2022-09-15T01:19:10.147Z,99885.84
2022-09-15T01:21:44.653Z,99889.56
2022-09-15T01:24:14.227Z,99888.09
2022-09-15T01:26:47.175Z,99892.53
2022-09-15T01:29:51.182Z,99895.25
2022-09-15T01:33:01.446Z,99898.13
2022-09-15T01:35:37.273Z,99906.09
2022-09-15T01:38:07.431Z,99901.22
2022-09-15T01:41:01.007Z,99896.91
2022-09-15T01:43:29.800Z,99901.19
2022-09-15T01:45:59.231Z,99887.25
2022-09-15T01:48:28.310Z,99888.00
2022-09-15T01:50:58.980Z,99904.66
2022-09-15T01:53:26.508Z,99896.78
2022-09-15T01:55:53.940Z,99905.41
2022-09-15T01:58:21.270Z,99902.72
2022-09-15T02:00:53.821Z,99890.56
2022-09-15T02:03:26.963Z,99896.56
2022-09-15T02:06:02.732Z,99887.88
2022-09-15T02:08:45.135Z,99885.13
2022-09-15T02:11:16.844Z,99889.44
2022-09-15T02:13:56.218Z,99892.94
2022-09-15T02:16:25.710Z,99892.09
2022-09-15T02:19:12.357Z,99887.69
2022-09-15T02:21:53.262Z,99890.31
2022-09-15T02:24:26.770Z,99887.69
2022-09-15T02:26:55.210Z,99890.22
2022-09-15T02:29:26.233Z,99893.59
2022-09-15T02:31:56.416Z,99901.38
2022-09-15T02:34:32.183Z,99897.03
2022-09-15T02:36:59.117Z,99897.03
2022-09-15T02:39:34.260Z,99882.97
2022-09-15T02:42:02.388Z,99896.91
2022-09-15T02:44:33.494Z,99889.25
2022-09-15T02:47:01.866Z,99890.13
2022-09-15T02:49:28.345Z,99887.56
2022-09-15T02:51:54.877Z,99888.31
2022-09-15T02:54:21.568Z,99875.19
2022-09-15T02:56:48.026Z,99883.91
2022-09-15T02:59:14.516Z,99874.34
2022-09-15T03:01:41.064Z,99881.50
2022-09-15T03:04:07.767Z,99868.34
2022-09-15T03:06:37.132Z,99882.91
2022-09-15T03:09:07.094Z,99882.84
2022-09-15T03:11:34.727Z,99885.63
2022-09-15T03:14:05.908Z,99890.66
2022-09-15T03:16:34.517Z,99895.81
2022-09-15T03:19:02.076Z,99889.00
2022-09-15T03:21:29.613Z,99882.97
2022-09-15T03:23:59.228Z,99894.97
2022-09-15T03:26:26.131Z,99897.44
2022-09-15T03:28:53.173Z,99888.72
2022-09-15T03:31:19.937Z,99900.00
2022-09-15T03:33:47.284Z,99899.97
2022-09-15T03:36:13.681Z,99901.78
2022-09-15T03:38:40.137Z,99910.28
2022-09-15T03:41:10.777Z,99911.13
2022-09-15T03:43:38.380Z,99903.63
2022-09-15T03:46:06.618Z,99905.47
2022-09-15T03:48:35.035Z,99912.38
2022-09-15T03:51:03.104Z,99908.00
2022-09-15T03:53:34.887Z,99902.97
2022-09-15T03:56:12.153Z,99898.50
2022-09-15T03:58:38.918Z,99892.31
2022-09-15T04:01:05.421Z,99899.13
2022-09-15T04:03:32.435Z,99900.00
2022-09-15T04:05:58.853Z,99898.97
2022-09-15T04:08:25.559Z,99894.75
2022-09-15T04:10:52.080Z,99885.13
2022-09-15T04:13:18.588Z,99890.25
2022-09-15T04:15:45.021Z,99888.41
2022-09-15T04:18:11.448Z,99895.41
2022-09-15T04:20:40.922Z,99894.66
2022-09-15T04:23:07.382Z,99898.03
2022-09-15T04:25:33.912Z,99894.72
2022-09-15T04:28:00.547Z,99892.13
2022-09-15T04:30:26.973Z,99901.56
2022-09-15T04:32:53.942Z,99899.81
2022-09-15T04:35:21.996Z,99903.25
2022-09-15T04:37:48.589Z,99899.00
2022-09-15T04:40:15.231Z,99902.44
2022-09-15T04:42:41.713Z,99899.16
2022-09-15T04:45:08.665Z,99900.81
2022-09-15T04:47:35.143Z,99899.94
2022-09-15T04:50:01.941Z,99895.56
2022-09-15T04:52:28.449Z,99903.19
2022-09-15T04:54:54.891Z,99900.50
2022-09-15T04:57:21.306Z,99898.59
2022-09-15T04:59:47.750Z,99899.50
2022-09-15T05:02:14.286Z,99904.75
2022-09-15T05:04:40.838Z,99903.88
2022-09-15T05:07:07.320Z,99904.75
2022-09-15T05:09:33.834Z,99905.66
2022-09-15T05:12:00.329Z,99903.81
2022-09-15T05:14:26.777Z,99902.00
2022-09-15T05:16:53.229Z,99902.81
2022-09-15T05:19:19.681Z,99904.72
2022-09-15T05:21:46.109Z,99897.69
2022-09-15T05:24:12.581Z,99897.66
2022-09-15T05:26:39.355Z,99911.53
2022-09-15T05:29:05.813Z,99906.22
2022-09-15T05:31:36.663Z,99915.88
2022-09-15T05:34:05.351Z,99918.50
2022-09-15T05:36:32.333Z,99925.38
2022-09-15T05:38:59.148Z,99917.38
2022-09-15T05:41:27.418Z,99915.63
2022-09-15T05:43:59.730Z,99915.69
2022-09-15T05:46:27.527Z,99922.72
2022-09-15T05:48:56.574Z,99916.56
2022-09-15T05:51:23.620Z,99919.09
2022-09-15T05:53:50.969Z,99920.91
2022-09-15T05:56:19.082Z,99919.28
2022-09-15T05:58:47.541Z,99923.44
2022-09-15T06:01:25.607Z,99924.28
2022-09-15T06:03:53.400Z,99923.41
2022-09-15T06:06:22.006Z,99932.03
2022-09-15T06:08:55.607Z,99931.16
2022-09-15T06:11:29.650Z,99939.97
2022-09-15T06:14:00.089Z,99941.78
2022-09-15T06:16:26.959Z,99943.56
2022-09-15T06:18:54.265Z,99940.06
2022-09-15T06:21:23.775Z,99941.84
2022-09-15T06:23:55.411Z,99940.03
2022-09-15T06:26:23.046Z,99941.81
2022-09-15T06:28:50.622Z,99940.94
2022-09-15T06:31:18.332Z,99940.94
2022-09-15T06:33:47.421Z,99942.63
2022-09-15T06:36:15.841Z,99942.63
2022-09-15T06:38:43.127Z,99945.28
2022-09-15T06:41:10.516Z,99945.31
2022-09-15T06:43:37.343Z,99952.13
2022-09-15T06:46:06.109Z,99948.66
2022-09-15T06:48:32.698Z,99949.66
2022-09-15T06:51:00.352Z,99949.50
2022-09-15T06:53:30.825Z,99943.31
2022-09-15T06:56:16.843Z,99956.34
2022-09-15T06:58:44.924Z,99952.69
2022-09-15T07:01:14.822Z,99954.34
2022-09-15T07:03:43.940Z,99957.72
2022-09-15T07:06:12.185Z,99968.13
2022-09-15T07:08:39.808Z,99970.72
2022-09-15T07:11:07.265Z,99971.78
2022-09-15T07:13:33.673Z,99968.22
2022-09-15T07:16:03.552Z,99970.63
2022-09-15T07:18:31.063Z,99973.13
2022-09-15T07:21:09.321Z,99965.38
2022-09-15T07:23:36.301Z,99969.63
2022-09-15T07:26:23.789Z,99964.25
2022-09-15T07:28:53.771Z,99968.56
2022-09-15T07:31:23.146Z,99960.06
2022-09-15T07:33:49.797Z,99975.84
2022-09-15T07:36:16.682Z,99972.16
2022-09-15T07:38:45.701Z,99976.59
2022-09-15T07:41:15.109Z,99979.09
2022-09-15T07:43:49.432Z,99984.63
2022-09-15T07:46:17.296Z,99985.97
2022-09-15T07:48:47.836Z,99986.88
2022-09-15T07:51:15.527Z,99990.06
2022-09-15T07:53:42.891Z,99991.00
2022-09-15T07:56:10.051Z,100000.22
2022-09-15T07:58:36.591Z,99999.25
2022-09-15T08:01:08.119Z,100000.19
2022-09-15T08:03:34.621Z,100002.13
2022-09-15T08:06:02.905Z,100011.91
2022-09-15T08:08:30.270Z,100006.59
2022-09-15T08:10:56.808Z,100008.88
2022-09-15T08:13:24.289Z,100002.75
2022-09-15T08:15:52.203Z,100005.16
2022-09-15T08:18:18.725Z,100006.84
2022-09-15T08:20:45.192Z,100001.34
2022-09-15T08:23:11.936Z,100009.00
2022-09-15T08:25:39.565Z,100017.72
2022-09-15T08:28:06.156Z,100017.34
2022-09-15T08:30:32.916Z,100003.28
2022-09-15T08:32:59.327Z,100022.91
2022-09-15T08:35:25.842Z,100028.81
2022-09-15T08:37:54.281Z,100025.22
2022-09-15T08:40:26.633Z,100015.50
2022-09-15T08:42:57.578Z,100010.06
2022-09-15T08:45:35.554Z,100014.38
2022-09-15T08:48:04.954Z,100023.75
2022-09-15T08:50:44.858Z,100027.78
2022-09-15T08:53:20.026Z,100023.38
2022-09-15T08:55:52.669Z,100018.97
2022-09-15T08:58:21.797Z,100032.09
2022-09-15T09:00:51.936Z,100024.50
2022-09-15T09:03:33.585Z,100039.72
2022-09-15T09:06:24.095Z,100035.69
2022-09-15T09:08:50.546Z,100029.94
2022-09-15T09:11:43.134Z,100027.00
2022-09-15T09:14:36.967Z,100023.34
2022-09-15T09:17:14.692Z,100027.44
2022-09-15T09:19:57.582Z,100025.09
2022-09-15T09:22:27.998Z,100023.88
2022-09-15T09:24:57.873Z,100027.91
2022-09-15T09:27:28.781Z,100036.00
2022-09-15T09:30:03.882Z,100035.03
2022-09-15T09:32:45.444Z,100023.84
2022-09-15T09:35:14.857Z,100034.44
2022-09-15T09:37:41.358Z,100036.38
2022-09-15T09:40:15.766Z,100036.59
2022-09-15T09:42:43.595Z,100044.13
2022-09-15T09:45:15.541Z,100035.81
2022-09-15T09:47:42.812Z,100036.22
2022-09-15T09:50:32.422Z,100030.28
2022-09-15T09:52:59.635Z,100031.34
2022-09-15T09:55:28.135Z,100019.09
2022-09-15T09:58:10.959Z,100022.81
2022-09-15T10:00:39.685Z,100033.28
2022-09-15T10:03:18.565Z,100029.38
2022-09-15T10:06:00.151Z,100031.19
2022-09-15T10:08:26.618Z,100015.94
2022-09-15T10:10:55.114Z,100018.78
2022-09-15T10:13:22.288Z,100026.72
2022-09-15T10:15:59.381Z,100019.47
2022-09-15T10:18:33.728Z,100018.94
2022-09-15T10:21:02.240Z,100017.53
2022-09-15T10:23:31.381Z,100010.63
2022-09-15T10:26:17.729Z,100032.50
2022-09-15T10:28:45.287Z,100033.72
2022-09-15T10:31:13.661Z,100031.19
2022-09-15T10:33:42.634Z,100017.06
2022-09-15T10:36:15.602Z,100024.19
2022-09-15T10:38:45.512Z,100025.47
2022-09-15T10:41:25.965Z,100021.56
2022-09-15T10:44:32.254Z,100017.72
2022-09-15T10:47:17.354Z,100012.06
2022-09-15T10:50:15.845Z,100022.44
2022-09-15T10:52:54.091Z,100008.38
2022-09-15T10:55:51.558Z,100019.75
2022-09-15T10:58:43.490Z,100008.84
2022-09-15T11:01:30.452Z,100017.69
2022-09-15T11:04:12.181Z,100023.34
2022-09-15T11:06:56.814Z,100017.88
2022-09-15T11:09:58.781Z,100024.31
2022-09-15T11:12:34.047Z,100021.19
2022-09-15T11:15:25.437Z,100018.50
2022-09-15T11:18:18.801Z,100025.72
2022-09-15T11:21:07.218Z,100020.09
2022-09-15T11:23:52.757Z,100018.41
2022-09-15T11:26:31.577Z,100017.91
2022-09-15T11:29:05.677Z,100008.28
2022-09-15T11:31:41.029Z,100007.28
2022-09-15T11:34:29.020Z,100012.38
2022-09-15T11:37:25.419Z,100010.84
2022-09-15T11:40:04.301Z,100007.38
2022-09-15T11:42:40.157Z,99998.06
2022-09-15T11:45:17.493Z,100004.06
2022-09-15T11:47:50.413Z,100016.03
2022-09-15T11:50:32.531Z,100018.28
2022-09-15T11:53:30.940Z,100012.00
2022-09-15T11:56:16.111Z,100018.06
2022-09-15T11:59:01.430Z,100017.75
2022-09-15T12:01:36.834Z,100018.09
2022-09-15T12:04:26.983Z,100024.25
2022-09-15T12:07:01.412Z,100016.22
2022-09-15T12:09:29.197Z,100026.59
2022-09-15T12:12:01.870Z,100021.66
2022-09-15T12:14:40.891Z,100027.88
2022-09-15T12:17:11.280Z,100026.44
2022-09-15T12:20:23.899Z,100021.38
2022-09-15T12:22:59.121Z,100024.19
2022-09-15T12:25:59.721Z,100026.41
2022-09-15T12:28:37.493Z,100025.53
2022-09-15T12:31:25.231Z,100021.16
2022-09-15T12:34:24.286Z,100019.13
2022-09-15T12:36:54.157Z,100002.59
2022-09-15T12:39:36.267Z,100005.47
2022-09-15T12:42:10.707Z,100008.03
2022-09-15T12:44:40.576Z,100006.25
2022-09-15T12:47:28.522Z,100012.06
2022-09-15T12:50:01.613Z,100012.16
2022-09-15T12:52:29.275Z,99995.59
2022-09-15T12:55:01.931Z,100011.66
2022-09-15T12:57:30.277Z,100016.22
2022-09-15T13:00:23.232Z,100019.56
2022-09-15T13:02:51.532Z,100014.66
2022-09-15T13:05:42.607Z,100024.03
2022-09-15T13:08:33.379Z,100025.44
2022-09-15T13:11:13.041Z,100025.06
2022-09-15T13:13:48.623Z,100029.00
2022-09-15T13:16:21.726Z,100022.28
2022-09-15T13:18:55.893Z,100025.03
2022-09-15T13:21:24.077Z,100027.53
2022-09-15T13:23:54.257Z,100035.25
2022-09-15T13:26:25.500Z,100027.25
2022-09-15T13:28:55.731Z,100017.47
2022-09-15T13:31:50.278Z,100030.69
2022-09-15T13:35:13.674Z,100024.78
2022-09-15T13:38:17.349Z,100021.22
2022-09-15T13:41:02.176Z,100029.84
2022-09-15T13:43:47.413Z,100018.56
2022-09-15T13:46:48.942Z,100009.28
2022-09-15T13:49:32.861Z,100008.22
2022-09-15T13:52:12.648Z,99999.03
2022-09-15T13:55:26.149Z,100000.38
2022-09-15T14:00:56.040Z,100006.38
2022-09-15T14:03:46.171Z,100002.44
2022-09-15T14:06:16.741Z,99997.00
2022-09-15T14:08:45.915Z,99997.69
2022-09-15T14:11:15.711Z,100006.22
2022-09-15T14:13:49.070Z,99995.84
2022-09-15T14:16:39.657Z,100000.56
2022-09-15T14:19:24.717Z,100005.38
2022-09-15T14:21:53.760Z,99997.56
2022-09-15T14:24:27.890Z,99996.69
2022-09-15T14:26:54.512Z,99984.09
2022-09-15T14:29:24.443Z,99986.34
2022-09-15T14:31:51.260Z,99984.16
2022-09-15T14:34:23.139Z,99999.91
2022-09-15T14:37:07.633Z,99996.03
2022-09-15T14:39:37.341Z,99996.78
2022-09-15T14:42:23.139Z,99997.88
2022-09-15T14:47:43.355Z,100014.94
2022-09-15T14:50:21.476Z,100002.97
2022-09-15T14:53:02.913Z,100014.28
2022-09-15T14:55:32.090Z,100011.16
2022-09-15T14:58:04.684Z,100010.53
2022-09-15T15:00:53.450Z,100008.38
2022-09-15T15:03:41.217Z,100018.72
2022-09-15T15:06:33.064Z,100012.16
2022-09-15T15:09:21.381Z,100003.47
2022-09-15T15:11:51.310Z,100009.72
2022-09-15T15:14:18.446Z,100012.78
2022-09-15T15:16:56.740Z,100013.75
2022-09-15T15:19:33.816Z,100013.84
2022-09-15T15:22:08.098Z,100006.19
2022-09-15T15:24:39.617Z,100004.50
2022-09-15T15:27:25.212Z,100004.91
2022-09-15T15:29:52.767Z,100006.72
2022-09-15T15:32:25.108Z,100005.09
2022-09-15T15:34:59.763Z,100000.66
2022-09-15T15:37:29.764Z,100021.28
2022-09-15T15:39:58.554Z,100012.50
2022-09-15T15:42:26.643Z,100015.00
2022-09-15T15:45:02.254Z,100018.38
2022-09-15T15:47:32.189Z,100010.19
2022-09-15T15:50:27.532Z,100018.91
2022-09-15T15:52:54.577Z,100013.53
2022-09-15T15:55:28.315Z,100019.59
2022-09-15T15:57:55.997Z,100021.53
2022-09-15T16:00:33.159Z,100011.25
2022-09-15T16:02:59.658Z,100011.47
2022-09-15T16:05:29.080Z,100020.72
2022-09-15T16:07:56.786Z,100027.31
2022-09-15T16:10:28.074Z,100020.69
2022-09-15T16:12:54.575Z,100025.09
2022-09-15T16:15:21.439Z,100027.00
2022-09-15T16:17:48.907Z,100002.94
2022-09-15T16:20:16.602Z,100027.00
2022-09-15T16:22:43.652Z,100024.03
2022-09-15T16:25:18.215Z,100029.28
2022-09-15T16:27:44.665Z,100036.09
2022-09-15T16:30:12.090Z,100038.91
2022-09-15T16:32:40.124Z,100044.19
2022-09-15T16:35:29.736Z,100043.59
2022-09-15T16:37:56.190Z,100041.47
2022-09-15T16:40:22.676Z,100048.63
2022-09-15T16:42:49.121Z,100044.38
2022-09-15T16:45:28.571Z,100048.78
2022-09-15T16:47:54.958Z,100044.06
2022-09-15T16:50:21.396Z,100048.88
2022-09-15T16:52:47.932Z,100056.00
2022-09-15T16:55:23.233Z,100059.69
2022-09-15T16:57:50.442Z,100057.81
2022-09-15T17:00:17.466Z,100063.22
2022-09-15T17:02:44.150Z,100056.84
2022-09-15T17:05:32.469Z,100059.91
2022-09-15T17:07:58.913Z,100060.25
2022-09-15T17:10:25.553Z,100065.59
2022-09-15T17:12:52.334Z,100064.16
2022-09-15T17:15:20.529Z,100074.69
2022-09-15T17:17:47.680Z,100073.47
2022-09-15T17:20:14.715Z,100077.69
2022-09-15T17:22:41.688Z,100074.81
2022-09-15T17:25:24.754Z,100064.47
2022-09-15T17:27:51.744Z,100077.88
2022-09-15T17:30:19.853Z,100070.81
2022-09-15T17:32:46.802Z,100083.63
2022-09-15T17:35:24.310Z,100083.63
2022-09-15T17:37:51.764Z,100082.22
2022-09-15T17:40:20.805Z,100078.22
2022-09-15T17:42:47.778Z,100078.53
2022-09-15T17:45:18.580Z,100074.19
2022-09-15T17:47:45.081Z,100072.31
2022-09-15T17:50:12.514Z,100080.19
2022-09-15T17:52:39.115Z,100072.31
2022-09-15T17:55:23.479Z,100075.69
2022-09-15T17:57:50.067Z,100082.47
2022-09-15T18:00:18.766Z,100079.72
2022-09-15T18:02:49.138Z,100075.56
2022-09-15T18:05:24.430Z,100089.09
2022-09-15T18:07:53.691Z,100084.38
2022-09-15T18:10:21.480Z,100082.09
2022-09-15T18:12:50.119Z,100087.34
2022-09-15T18:15:22.200Z,100078.47
2022-09-15T18:17:49.868Z,100088.31
2022-09-15T18:20:19.350Z,100093.72
2022-09-15T18:22:47.108Z,100094.22
2022-09-15T18:25:17.274Z,100091.53
2022-09-15T18:27:44.189Z,100103.94
2022-09-15T18:30:11.854Z,100107.03
2022-09-15T18:32:38.264Z,100109.22
2022-09-15T18:35:05.461Z,100104.09
2022-09-15T18:37:31.866Z,100105.84
2022-09-15T18:39:58.362Z,100118.06
2022-09-15T18:42:27.310Z,100101.50
2022-09-15T18:44:56.272Z,100106.78
2022-09-15T18:47:22.707Z,100113.72
2022-09-15T18:49:49.126Z,100113.06
2022-09-15T18:52:15.565Z,100112.88
2022-09-15T18:54:42.119Z,100116.16
2022-09-15T18:57:09.671Z,100115.25
2022-09-15T18:59:36.063Z,100128.66
2022-09-15T19:02:02.688Z,100122.69
2022-09-15T19:04:32.256Z,100132.97
2022-09-15T19:06:59.817Z,100128.81
2022-09-15T19:09:26.230Z,100141.53
2022-09-15T19:11:52.666Z,100138.47
2022-09-15T19:14:19.141Z,100133.25
2022-09-15T19:16:57.716Z,100134.91
2022-09-15T19:19:25.207Z,100130.94
2022-09-15T19:21:51.818Z,100130.00
2022-09-15T19:24:18.297Z,100131.16
2022-09-15T19:26:47.184Z,100136.03
2022-09-15T19:29:15.486Z,100135.13
2022-09-15T19:31:42.328Z,100135.19
2022-09-15T19:34:09.054Z,100129.19
2022-09-15T19:36:35.534Z,100140.41
2022-09-15T19:39:03.452Z,100131.44
2022-09-15T19:41:30.650Z,100130.66
2022-09-15T19:44:00.272Z,100137.00
2022-09-15T19:46:26.712Z,100139.88
2022-09-15T19:48:53.805Z,100140.56
2022-09-15T19:51:20.849Z,100142.66
2022-09-15T19:53:47.978Z,100139.56
2022-09-15T19:56:21.781Z,100144.75
2022-09-15T19:58:49.317Z,100149.09
2022-09-15T20:01:16.194Z,100138.50
2022-09-15T20:03:42.903Z,100146.31
2022-09-15T20:06:09.415Z,100141.94
2022-09-15T20:08:36.511Z,100151.84
2022-09-15T20:11:07.461Z,100160.50
2022-09-15T20:13:39.157Z,100156.41
2022-09-15T20:16:05.981Z,100151.31
2022-09-15T20:18:36.511Z,100158.84
2022-09-15T20:21:07.194Z,100156.94
2022-09-15T20:23:34.221Z,100157.00
2022-09-15T20:26:02.951Z,100154.25
2022-09-15T20:28:29.894Z,100155.94
2022-09-15T20:31:12.012Z,100150.88
2022-09-15T20:33:41.060Z,100154.56
2022-09-15T20:36:20.893Z,100167.22
2022-09-15T20:38:47.684Z,100160.38
2022-09-15T20:41:15.481Z,100165.47
2022-09-15T20:43:42.548Z,100167.41
2022-09-15T20:46:12.914Z,100171.69
2022-09-15T20:48:39.845Z,100170.00
2022-09-15T20:51:12.412Z,100174.53
2022-09-15T20:53:40.978Z,100175.38
2022-09-15T20:56:08.315Z,100171.06
2022-09-15T20:58:36.477Z,100175.56
2022-09-15T21:01:08.833Z,100171.88
2022-09-15T21:03:37.140Z,100177.28
2022-09-15T21:06:06.458Z,100177.28
2022-09-15T21:08:33.725Z,100176.25
2022-09-15T21:11:01.084Z,100177.84
2022-09-15T21:13:29.959Z,100165.69
2022-09-15T21:15:59.188Z,100182.00
2022-09-15T21:18:27.223Z,100178.41
2022-09-15T21:20:55.336Z,100176.06
2022-09-15T21:23:21.982Z,100181.16
2022-09-15T21:26:01.177Z,100188.47
2022-09-15T21:28:28.809Z,100182.34
2022-09-15T21:31:03.773Z,100181.41
2022-09-15T21:33:31.449Z,100178.69
2022-09-15T21:36:05.075Z,100182.97
2022-09-15T21:38:31.838Z,100188.09
2022-09-15T21:40:58.309Z,100183.84
2022-09-15T21:43:29.050Z,100185.63
2022-09-15T21:45:57.040Z,100189.19
2022-09-15T21:48:24.148Z,100199.13
2022-09-15T21:50:51.467Z,100192.97
2022-09-15T21:53:20.066Z,100198.22
2022-09-15T21:55:50.253Z,100187.81
2022-09-15T21:58:19.126Z,100193.84
2022-09-15T22:00:46.842Z,100196.25
2022-09-15T22:03:13.797Z,100193.59
2022-09-15T22:05:41.468Z,100206.72
2022-09-15T22:08:11.383Z,100198.06
2022-09-15T22:10:38.412Z,100195.38
2022-09-15T22:13:06.759Z,100203.34
2022-09-15T22:15:33.795Z,100213.94
2022-09-15T22:18:00.662Z,100203.59
2022-09-15T22:20:28.183Z,100208.69
2022-09-15T22:23:01.159Z,100199.16
2022-09-15T22:25:27.683Z,100203.63
2022-09-15T22:27:54.186Z,100199.44
2022-09-15T22:30:20.625Z,100194.06
2022-09-15T22:32:47.492Z,100206.38
2022-09-15T22:35:13.984Z,100205.50
2022-09-15T22:37:40.473Z,100197.72
2022-09-15T22:40:07.405Z,100200.34
2022-09-15T22:42:33.868Z,100197.66
2022-09-15T22:45:00.308Z,100194.44
2022-09-15T22:47:26.772Z,100198.06
2022-09-15T22:49:53.284Z,100203.94
2022-09-15T22:52:21.092Z,100195.97
2022-09-15T22:54:47.512Z,100200.47
2022-09-15T22:57:13.942Z,100200.44
2022-09-15T22:59:40.379Z,100202.16
2022-09-15T23:02:06.923Z,100199.44
2022-09-15T23:04:33.464Z,100205.78
2022-09-15T23:06:59.909Z,100206.72
2022-09-15T23:09:26.458Z,100198.03
2022-09-15T23:11:52.886Z,100205.00
2022-09-15T23:14:19.357Z,100196.31
2022-09-15T23:16:45.895Z,100196.38
2022-09-15T23:19:13.649Z,100199.69
2022-09-15T23:21:40.193Z,100200.69
2022-09-15T23:24:06.894Z,100196.25
2022-09-15T23:26:33.692Z,100190.31
2022-09-15T23:29:00.261Z,100192.75
2022-09-15T23:31:26.784Z,100189.44
2022-09-15T23:33:53.254Z,100187.66
2022-09-15T23:36:19.971Z,100195.34
2022-09-15T23:38:47.177Z,100189.47
2022-09-15T23:41:15.032Z,100197.22
2022-09-15T23:43:41.522Z,100201.69
2022-09-15T23:46:08.052Z,100203.28
2022-09-15T23:48:34.517Z,100205.94
2022-09-15T23:51:01.745Z,100203.31
2022-09-15T23:53:28.803Z,100206.66
2022-09-15T23:55:55.273Z,100204.13
2022-09-15T23:58:21.732Z,100198.16
